createdAt,value
2019-04-21T00:01:54.573Z,35.10
2019-04-21T00:04:40.792Z,35.50
2019-04-21T00:07:20.563Z,35.70
2019-04-21T00:09:53.419Z,36.73
2019-04-21T00:12:22.100Z,34.83
2019-04-21T00:14:49.445Z,34.10
2019-04-21T00:17:17.790Z,33.43
2019-04-21T00:19:51.674Z,34.27
2019-04-21T00:22:39.177Z,34.80
2019-04-21T00:25:11.729Z,36.57
2019-04-21T00:27:47.803Z,36.40
2019-04-21T00:30:33.006Z,36.47
2019-04-21T00:32:51.555Z,35.10
2019-04-21T00:35:15.870Z,34.10
2019-04-21T00:38:08.253Z,35.03
2019-04-21T00:40:43.235Z,33.07
2019-04-21T00:43:09.781Z,37.13
2019-04-21T00:45:43.546Z,40.10
2019-04-21T00:48:22.986Z,37.93
2019-04-21T00:51:16.598Z,38.13
2019-04-21T00:53:43.517Z,40.10
2019-04-21T00:56:20.154Z,41.23
2019-04-21T00:58:48.317Z,38.63
2019-04-21T01:01:21.792Z,40.90
2019-04-21T01:03:58.396Z,38.97
2019-04-21T01:06:33.483Z,37.87
2019-04-21T01:09:01.161Z,38.00
2019-04-21T01:11:33.298Z,41.83
2019-04-21T01:14:13.447Z,43.20
2019-04-21T01:16:48.580Z,42.50
2019-04-21T01:19:13.617Z,41.57
2019-04-21T01:21:25.663Z,42.00
2019-04-21T01:24:06.521Z,44.00
2019-04-21T01:26:41.629Z,44.27
2019-04-21T01:29:20.916Z,43.83
2019-04-21T01:31:56.964Z,43.80
2019-04-21T01:34:33.195Z,43.50
2019-04-21T01:36:58.459Z,45.67
2019-04-21T01:39:42.801Z,44.57
2019-04-21T01:42:09.481Z,43.00
2019-04-21T01:44:50.614Z,41.57
2019-04-21T01:47:14.594Z,40.47
2019-04-21T01:49:41.752Z,39.70
2019-04-21T01:52:31.376Z,39.80
2019-04-21T01:55:06.432Z,42.07
2019-04-21T01:57:52.661Z,43.30
2019-04-21T02:00:39.615Z,40.90
2019-04-21T02:03:34.467Z,41.07
2019-04-21T02:05:51.998Z,41.17
2019-04-21T02:08:21.562Z,39.70
2019-04-21T02:11:00.542Z,40.97
2019-04-21T02:13:23.494Z,40.10
2019-04-21T02:16:06.783Z,41.00
2019-04-21T02:18:33.711Z,39.20
2019-04-21T02:20:57.133Z,40.50
2019-04-21T02:23:47.979Z,39.57
2019-04-21T02:26:21.825Z,40.87
2019-04-21T02:28:56.518Z,40.97
2019-04-21T02:39:15.870Z,37.63
2019-04-21T02:41:51.194Z,32.87
2019-04-21T02:44:18.348Z,35.70
2019-04-21T02:49:35.014Z,32.27
2019-04-21T02:52:01.555Z,31.07
2019-04-21T02:54:48.008Z,29.67
2019-04-21T02:57:09.210Z,31.73
2019-04-21T03:02:54.501Z,30.50
2019-04-21T03:08:28.081Z,34.97
2019-04-21T03:11:09.071Z,31.83
2019-04-21T03:16:11.804Z,33.33
2019-04-21T03:18:45.849Z,36.80
2019-04-21T03:21:07.440Z,36.07
2019-04-21T03:23:48.347Z,36.87
2019-04-21T03:26:21.987Z,34.27
2019-04-21T03:28:54.473Z,33.43
2019-04-21T03:34:31.048Z,31.23
2019-04-21T03:38:57.032Z,24.70
2019-04-21T03:41:38.076Z,25.03
2019-04-21T03:44:06.537Z,23.23
2019-04-21T03:46:43.810Z,22.57
2019-04-21T03:49:21.016Z,22.90
2019-04-21T03:54:26.954Z,22.67
2019-04-21T03:57:10.945Z,23.30
2019-04-21T03:59:25.048Z,22.37
2019-04-21T04:02:14.815Z,21.67
2019-04-21T04:04:53.483Z,23.37
2019-04-21T04:10:28.907Z,24.17
2019-04-21T04:12:57.096Z,21.00
2019-04-21T04:20:38.813Z,21.63
2019-04-21T04:23:08.040Z,21.50
2019-04-21T04:25:43.798Z,22.97
2019-04-21T04:28:40.580Z,21.20
2019-04-21T04:33:29.954Z,21.37
2019-04-21T04:38:56.373Z,21.20
2019-04-21T04:41:33.155Z,20.43
2019-04-21T04:46:18.327Z,20.60
2019-04-21T04:49:03.407Z,20.27
2019-04-21T04:51:36.587Z,20.10
2019-04-21T04:53:58.715Z,21.37
2019-04-21T04:56:38.839Z,20.73
2019-04-21T04:59:35.392Z,19.40
2019-04-21T05:01:51.282Z,20.57
2019-04-21T05:04:20.310Z,19.30
2019-04-21T05:19:34.246Z,18.10
2019-04-21T05:22:12.299Z,19.93
2019-04-21T05:24:34.424Z,18.17
2019-04-21T05:27:03.177Z,18.40
2019-04-21T05:29:56.772Z,18.10
2019-04-21T05:32:34.387Z,14.60
2019-04-21T05:35:08.398Z,14.57
2019-04-21T05:37:47.302Z,15.67
2019-04-21T05:40:29.316Z,15.30
2019-04-21T05:43:03.364Z,16.90
2019-04-21T05:45:40.991Z,15.90
2019-04-21T05:48:32.222Z,14.70
2019-04-21T05:51:01.500Z,14.23
2019-04-21T05:53:49.216Z,15.53
2019-04-21T05:56:12.896Z,13.93
2019-04-21T05:58:43.640Z,14.60
2019-04-21T06:01:24.349Z,13.47
2019-04-21T06:03:52.749Z,14.40
2019-04-21T06:06:26.431Z,12.10
2019-04-21T06:08:59.579Z,12.50
2019-04-21T06:11:32.054Z,12.97
2019-04-21T06:14:11.862Z,10.60
2019-04-21T06:16:44.119Z,11.17
2019-04-21T06:19:11.481Z,10.13
2019-04-21T06:21:44.775Z,10.20
2019-04-21T06:24:15.678Z,10.50
2019-04-21T06:27:13.436Z,10.73
2019-04-21T06:29:30.107Z,9.43
2019-04-21T06:34:51.835Z,9.47
2019-04-21T06:37:40.139Z,8.93
2019-04-21T06:40:12.705Z,8.63
2019-04-21T06:42:28.357Z,8.77
2019-04-21T06:45:18.831Z,8.50
2019-04-21T06:50:07.607Z,7.90
2019-04-21T06:52:50.001Z,7.30
2019-04-21T06:55:20.108Z,8.17
2019-04-21T06:57:50.456Z,9.17
2019-04-21T07:00:22.374Z,7.40
2019-04-21T07:03:04.343Z,7.47
2019-04-21T07:05:34.534Z,9.27
2019-04-21T07:08:16.719Z,8.77
2019-04-21T07:10:38.438Z,8.27
2019-04-21T07:13:07.949Z,7.50
2019-04-21T07:15:43.640Z,7.67
2019-04-21T07:18:25.323Z,8.97
2019-04-21T07:20:49.480Z,8.47
2019-04-21T07:23:28.414Z,8.00
2019-04-21T07:26:00.914Z,7.67
2019-04-21T07:32:06.518Z,7.83
2019-04-21T07:34:38.427Z,7.77
2019-04-21T07:37:06.000Z,8.70
2019-04-21T07:39:40.736Z,7.90
2019-04-21T07:42:13.352Z,8.33
2019-04-21T07:44:46.037Z,7.90
2019-04-21T07:47:28.469Z,8.10
2019-04-21T07:50:08.837Z,7.03
2019-04-21T07:52:55.354Z,7.80
2019-04-21T07:57:52.659Z,8.80
2019-04-21T08:00:41.956Z,7.90
2019-04-21T08:03:11.964Z,6.80
2019-04-21T08:08:12.017Z,7.27
2019-04-21T08:10:43.951Z,7.17
2019-04-21T08:13:28.963Z,7.60
2019-04-21T08:15:58.007Z,7.10
2019-04-21T08:18:35.299Z,7.20
2019-04-21T08:21:01.309Z,8.07
2019-04-21T08:23:40.256Z,7.10
2019-04-21T08:26:07.956Z,7.90
2019-04-21T08:28:49.468Z,7.47
2019-04-21T08:31:23.706Z,7.40
2019-04-21T08:33:56.103Z,6.40
2019-04-21T08:36:32.643Z,6.80
2019-04-21T08:39:03.289Z,6.83
2019-04-21T08:41:28.007Z,6.87
2019-04-21T08:43:55.989Z,6.70
2019-04-21T08:46:38.702Z,6.33
2019-04-21T08:49:08.055Z,6.80
2019-04-21T08:51:48.516Z,6.30
2019-04-21T08:54:21.503Z,6.50
2019-04-21T08:57:12.448Z,5.90
2019-04-21T08:59:54.761Z,6.40
2019-04-21T09:02:29.247Z,6.00
2019-04-21T09:04:58.513Z,6.20
2019-04-21T09:10:06.829Z,4.87
2019-04-21T09:12:42.387Z,4.77
2019-04-21T09:15:13.898Z,4.57
2019-04-21T09:17:43.786Z,7.07
2019-04-21T09:20:40.218Z,6.20
2019-04-21T09:22:55.705Z,4.90
2019-04-21T09:25:36.014Z,4.27
2019-04-21T09:28:02.386Z,4.63
2019-04-21T09:30:15.729Z,4.50
2019-04-21T09:32:51.659Z,4.10
2019-04-21T09:35:22.319Z,4.03
2019-04-21T09:38:02.214Z,4.50
2019-04-21T09:40:34.440Z,4.10
2019-04-21T09:43:04.728Z,4.00
2019-04-21T09:45:35.495Z,4.37
2019-04-21T09:48:12.405Z,5.37
2019-04-21T09:50:41.467Z,4.80
2019-04-21T09:53:22.666Z,5.30
2019-04-21T09:55:54.198Z,4.43
2019-04-21T09:58:29.332Z,4.70
2019-04-21T10:01:11.029Z,4.60
2019-04-21T10:03:37.107Z,4.50
2019-04-21T10:06:04.445Z,5.23
2019-04-21T10:08:36.428Z,3.90
2019-04-21T10:11:08.025Z,4.63
2019-04-21T10:13:39.829Z,4.10
2019-04-21T10:16:45.273Z,3.80
2019-04-21T10:19:17.520Z,4.20
2019-04-21T10:21:50.146Z,4.10
2019-04-21T10:24:22.237Z,4.63
2019-04-21T10:26:53.997Z,4.83
2019-04-21T10:29:29.347Z,4.20
2019-04-21T10:31:59.576Z,4.77
2019-04-21T10:34:32.236Z,5.43
2019-04-21T10:37:05.135Z,4.30
2019-04-21T10:39:37.775Z,3.80
2019-04-21T10:42:09.361Z,4.20
2019-04-21T10:44:41.103Z,3.77
2019-04-21T10:47:13.085Z,4.67
2019-04-21T10:49:46.611Z,4.17
2019-04-21T10:52:32.917Z,4.20
2019-04-21T10:55:20.749Z,3.50
2019-04-21T10:57:40.657Z,3.57
2019-04-21T11:00:14.355Z,3.87
2019-04-21T11:02:50.827Z,4.23
2019-04-21T11:05:22.721Z,3.53
2019-04-21T11:08:08.963Z,3.90
2019-04-21T11:10:29.796Z,3.77
2019-04-21T11:13:02.753Z,2.93
2019-04-21T11:15:34.991Z,3.43
2019-04-21T11:18:08.210Z,3.87
2019-04-21T11:20:40.595Z,3.20
2019-04-21T11:23:14.246Z,3.60
2019-04-21T11:25:49.563Z,3.40
2019-04-21T11:28:22.896Z,3.30
2019-04-21T11:30:57.499Z,3.00
2019-04-21T11:33:29.310Z,3.20
2019-04-21T11:36:01.459Z,3.33
2019-04-21T11:39:16.907Z,2.83
2019-04-21T11:41:34.195Z,2.73
2019-04-21T11:44:05.816Z,2.53
2019-04-21T11:46:38.363Z,3.77
2019-04-21T11:49:10.438Z,3.33
2019-04-21T11:51:42.834Z,2.77
2019-04-21T11:54:15.074Z,2.90
2019-04-21T11:56:46.818Z,3.07
2019-04-21T11:59:19.602Z,2.73
2019-04-21T12:01:51.777Z,3.57
2019-04-21T12:04:23.545Z,3.23
2019-04-21T12:06:55.983Z,3.13
2019-04-21T12:09:29.238Z,3.13
2019-04-21T12:12:01.386Z,2.80
2019-04-21T12:14:34.177Z,3.40
2019-04-21T12:17:06.003Z,3.10
2019-04-21T12:19:38.727Z,2.70
2019-04-21T12:22:19.287Z,2.70
2019-04-21T12:24:44.910Z,2.70
2019-04-21T12:27:18.154Z,2.87
2019-04-21T12:29:49.703Z,3.00
2019-04-21T12:32:46.234Z,2.63
2019-04-21T12:35:18.057Z,2.53
2019-04-21T12:37:51.013Z,2.50
2019-04-21T12:40:22.748Z,2.90
2019-04-21T12:42:54.904Z,2.73
2019-04-21T12:45:26.549Z,3.13
2019-04-21T12:47:58.136Z,2.60
2019-04-21T12:50:30.029Z,2.90
2019-04-21T12:53:01.708Z,3.10
2019-04-21T12:55:44.003Z,2.53
2019-04-21T12:58:13.146Z,2.77
2019-04-21T13:00:44.987Z,2.20
2019-04-21T13:03:17.430Z,2.70
2019-04-21T13:05:49.547Z,3.03
2019-04-21T13:08:21.760Z,2.70
2019-04-21T13:10:53.959Z,2.80
2019-04-21T13:13:26.184Z,2.37
2019-04-21T13:15:57.859Z,2.20
2019-04-21T13:18:29.544Z,2.40
2019-04-21T13:21:02.714Z,2.40
2019-04-21T13:23:34.922Z,2.10
2019-04-21T13:26:08.242Z,2.60
2019-04-21T13:28:40.457Z,2.50
2019-04-21T13:31:12.253Z,3.07
2019-04-21T13:33:44.053Z,2.73
2019-04-21T13:36:15.845Z,2.97
2019-04-21T13:39:48.741Z,3.00
2019-04-21T13:42:02.738Z,3.13
2019-04-21T13:44:23.560Z,3.10
2019-04-21T13:46:56.571Z,3.17
2019-04-21T13:49:29.462Z,3.40
2019-04-21T13:52:02.644Z,2.90
2019-04-21T13:54:35.575Z,2.80
2019-04-21T13:57:08.340Z,2.77
2019-04-21T13:59:40.415Z,2.80
2019-04-21T14:02:12.926Z,2.70
2019-04-21T14:04:45.355Z,3.63
2019-04-21T14:07:18.328Z,3.60
2019-04-21T14:09:57.587Z,2.90
2019-04-21T14:12:23.552Z,2.70
2019-04-21T14:14:57.066Z,2.93
2019-04-21T14:17:28.869Z,3.73
2019-04-21T14:20:01.515Z,3.17
2019-04-21T14:22:33.959Z,3.30
2019-04-21T14:25:07.878Z,3.60
2019-04-21T14:27:39.493Z,2.90
2019-04-21T14:30:14.436Z,2.83
2019-04-21T14:32:46.081Z,3.60
2019-04-21T14:35:18.946Z,3.00
2019-04-21T14:37:50.744Z,2.87
2019-04-21T14:40:27.332Z,3.00
2019-04-21T14:42:56.298Z,2.83
2019-04-21T14:45:34.612Z,2.80
2019-04-21T14:48:25.387Z,3.47
2019-04-21T14:51:16.864Z,3.03
2019-04-21T14:54:03.714Z,2.90
2019-04-21T14:56:35.604Z,3.13
2019-04-21T14:59:07.778Z,2.60
2019-04-21T15:01:41.879Z,3.47
2019-04-21T15:04:15.932Z,3.20
2019-04-21T15:06:47.650Z,3.00
2019-04-21T15:09:19.323Z,3.33
2019-04-21T15:11:51.955Z,3.20
2019-04-21T15:14:24.124Z,3.30
2019-04-21T15:16:56.859Z,2.90
2019-04-21T15:19:28.803Z,3.30
2019-04-21T15:22:00.747Z,3.23
2019-04-21T15:24:32.339Z,3.17
2019-04-21T15:27:05.098Z,3.03
2019-04-21T15:29:36.791Z,3.27
2019-04-21T15:32:08.566Z,3.47
2019-04-21T15:34:40.289Z,3.10
2019-04-21T15:37:12.036Z,3.30
2019-04-21T15:39:44.769Z,2.83
2019-04-21T15:42:16.788Z,2.90
2019-04-21T15:44:48.516Z,2.90
2019-04-21T15:47:20.318Z,2.50
2019-04-21T15:50:02.789Z,3.17
2019-04-21T15:52:29.951Z,3.10
2019-04-21T15:55:06.536Z,3.10
2019-04-21T15:58:02.623Z,2.70
2019-04-21T16:00:54.425Z,3.03
2019-04-21T16:03:26.820Z,2.90
2019-04-21T16:05:59.407Z,3.10
2019-04-21T16:08:31.259Z,2.93
2019-04-21T16:11:06.172Z,3.63
2019-04-21T16:13:37.364Z,2.63
2019-04-21T16:16:10.479Z,3.20
2019-04-21T16:18:42.579Z,3.33
2019-04-21T16:21:15.802Z,3.20
2019-04-21T16:23:48.631Z,3.00
2019-04-21T16:26:20.534Z,3.40
2019-04-21T16:28:53.209Z,3.50
2019-04-21T16:31:25.856Z,2.83
2019-04-21T16:33:58.835Z,3.13
2019-04-21T16:36:31.720Z,2.70
2019-04-21T16:39:07.352Z,2.90
2019-04-21T16:41:40.382Z,3.90
2019-04-21T16:44:13.452Z,3.83
2019-04-21T16:46:45.507Z,4.23
2019-04-21T16:49:18.055Z,3.83
2019-04-21T16:52:10.036Z,3.63
2019-04-21T16:54:44.020Z,3.20
2019-04-21T16:57:35.654Z,3.40
2019-04-21T17:00:13.829Z,3.30
2019-04-21T17:02:46.370Z,2.93
2019-04-21T17:05:20.402Z,3.53
2019-04-21T17:07:52.919Z,3.03
2019-04-21T17:10:24.686Z,3.33
2019-04-21T17:12:57.590Z,2.80
2019-04-21T17:15:48.834Z,4.10
2019-04-21T17:18:22.135Z,5.20
2019-04-21T17:20:44.092Z,6.00
2019-04-21T17:23:09.588Z,6.70
2019-04-21T17:25:41.547Z,6.20
2019-04-21T17:28:13.123Z,6.83
2019-04-21T17:30:46.261Z,6.83
2019-04-21T17:33:21.655Z,7.40
2019-04-21T17:35:53.136Z,7.60
2019-04-21T17:38:25.936Z,6.33
2019-04-21T17:41:09.449Z,6.40
2019-04-21T17:43:31.935Z,6.57
2019-04-21T17:46:04.860Z,7.03
2019-04-21T17:48:40.623Z,6.70
2019-04-21T17:51:46.689Z,7.10
2019-04-21T17:54:25.006Z,6.60
2019-04-21T17:57:10.986Z,6.93
2019-04-21T18:02:22.563Z,5.70
2019-04-21T18:04:51.017Z,6.93
2019-04-21T18:07:27.199Z,6.17
2019-04-21T18:10:11.419Z,7.10
2019-04-21T18:12:33.672Z,5.77
2019-04-21T18:15:03.990Z,6.30
2019-04-21T18:17:26.731Z,6.47
2019-04-21T18:19:59.699Z,5.20
2019-04-21T18:22:57.245Z,5.93
2019-04-21T18:25:43.942Z,6.10
2019-04-21T18:28:03.630Z,6.53
2019-04-21T18:31:06.881Z,6.10
2019-04-21T18:33:43.929Z,6.30
2019-04-21T18:36:37.816Z,6.20
2019-04-21T18:39:46.344Z,5.90
2019-04-21T18:42:37.482Z,6.47
2019-04-21T18:48:11.017Z,6.97
2019-04-21T18:50:46.231Z,5.77
2019-04-21T18:53:32.698Z,6.63
2019-04-21T18:55:54.735Z,6.87
2019-04-21T18:58:22.307Z,6.60
2019-04-21T19:01:03.246Z,7.30
2019-04-21T19:03:35.787Z,6.90
2019-04-21T19:06:08.124Z,7.97
2019-04-21T19:08:57.174Z,7.43
2019-04-21T19:11:23.751Z,7.27
2019-04-21T19:14:36.205Z,7.50
2019-04-21T19:17:39.462Z,8.00
2019-04-21T19:22:04.640Z,7.07
2019-04-21T19:24:36.929Z,8.10
2019-04-21T19:27:11.728Z,7.13
2019-04-21T19:29:42.280Z,7.00
2019-04-21T19:32:22.575Z,8.00
2019-04-21T19:34:34.921Z,7.37
2019-04-21T19:37:09.315Z,7.90
2019-04-21T19:39:53.012Z,7.23
2019-04-21T19:42:22.134Z,8.50
2019-04-21T19:44:59.473Z,7.30
2019-04-21T19:47:41.505Z,7.87
2019-04-21T19:50:12.122Z,7.63
2019-04-21T19:52:36.624Z,6.30
2019-04-21T19:54:58.628Z,6.73
2019-04-21T19:57:31.341Z,8.00
2019-04-21T20:00:04.277Z,8.00
2019-04-21T20:02:36.495Z,6.40
2019-04-21T20:05:13.657Z,7.50
2019-04-21T20:07:58.354Z,7.03
2019-04-21T20:10:33.276Z,6.97
2019-04-21T20:13:08.155Z,7.40
2019-04-21T20:15:45.957Z,7.33
2019-04-21T20:18:08.670Z,7.33
2019-04-21T20:20:31.054Z,6.97
2019-04-21T20:23:03.105Z,7.03
2019-04-21T20:25:43.686Z,7.17
2019-04-21T20:28:17.345Z,7.30
2019-04-21T20:31:01.466Z,7.80
2019-04-21T20:33:59.949Z,7.17
2019-04-21T20:36:12.291Z,8.17
2019-04-21T20:38:31.286Z,7.80
2019-04-21T20:41:01.855Z,7.77
2019-04-21T20:43:45.817Z,6.00
2019-04-21T20:46:23.762Z,7.07
2019-04-21T20:48:48.063Z,7.80
2019-04-21T20:51:29.996Z,7.20
2019-04-21T20:53:53.675Z,7.70
2019-04-21T20:56:29.026Z,6.90
2019-04-21T20:59:04.542Z,7.63
2019-04-21T21:01:39.775Z,7.60
2019-04-21T21:04:06.355Z,7.47
2019-04-21T21:06:40.702Z,8.37
2019-04-21T21:09:14.328Z,7.40
2019-04-21T21:12:09.976Z,7.57
2019-04-21T21:14:27.977Z,7.53
2019-04-21T21:17:03.013Z,7.97
2019-04-21T21:19:34.701Z,6.83
2019-04-21T21:21:59.100Z,8.17
2019-04-21T21:24:49.554Z,7.90
2019-04-21T21:27:14.302Z,7.60
2019-04-21T21:29:47.529Z,7.63
2019-04-21T21:32:20.738Z,8.10
2019-04-21T21:34:56.938Z,7.43
2019-04-21T21:37:32.175Z,8.50
2019-04-21T21:40:04.057Z,8.90
2019-04-21T21:42:26.051Z,6.90
2019-04-21T21:44:58.635Z,7.13
2019-04-21T21:47:45.162Z,7.33
2019-04-21T21:50:07.254Z,7.10
2019-04-21T21:52:44.958Z,7.37
2019-04-21T21:55:09.801Z,6.47
2019-04-21T21:57:47.456Z,7.10
2019-04-21T22:00:17.405Z,6.57
2019-04-21T22:02:53.243Z,7.33
2019-04-21T22:05:27.971Z,7.07
2019-04-21T22:07:58.544Z,7.33
2019-04-21T22:10:31.412Z,7.83
2019-04-21T22:13:09.636Z,7.77
2019-04-21T22:15:37.713Z,7.77
2019-04-21T22:18:33.343Z,7.00
2019-04-21T22:20:58.850Z,7.30
2019-04-21T22:23:30.557Z,6.80
2019-04-21T22:25:51.449Z,8.03
2019-04-21T22:28:23.164Z,6.80
2019-04-21T22:30:56.526Z,7.87
2019-04-21T22:33:34.524Z,6.73
2019-04-21T22:36:09.802Z,7.10
2019-04-21T22:38:46.162Z,7.07
2019-04-21T22:41:21.418Z,7.87
2019-04-21T22:43:45.978Z,6.83
2019-04-21T22:46:16.094Z,7.33
2019-04-21T22:48:53.113Z,7.90
2019-04-21T22:51:30.535Z,7.30
2019-04-21T22:53:57.492Z,6.73
2019-04-21T22:56:32.006Z,6.87
2019-04-21T22:59:04.296Z,7.40
2019-04-21T23:01:40.558Z,7.27
2019-04-21T23:04:08.904Z,7.07
2019-04-21T23:06:42.368Z,6.67
2019-04-21T23:09:15.035Z,6.20
2019-04-21T23:11:51.487Z,7.23
2019-04-21T23:14:21.738Z,6.90
2019-04-21T23:16:56.869Z,6.73
2019-04-21T23:19:41.089Z,6.80
2019-04-21T23:22:20.384Z,7.50
2019-04-21T23:24:54.586Z,6.37
2019-04-21T23:27:20.569Z,7.50
2019-04-21T23:30:09.750Z,7.77
2019-04-21T23:32:27.600Z,6.87
2019-04-21T23:34:49.111Z,7.20
2019-04-21T23:37:24.093Z,7.33
2019-04-21T23:40:03.033Z,6.60
2019-04-21T23:42:34.319Z,7.27
2019-04-21T23:45:02.947Z,6.80
2019-04-21T23:47:42.807Z,6.43
2019-04-21T23:50:21.234Z,5.80
2019-04-21T23:52:43.664Z,6.10
2019-04-21T23:55:16.921Z,6.40
2019-04-21T23:57:50.683Z,5.90
